sensor_id;sensor_type;location;lat;lon;timestamp;P1;durP1;ratioP1;P2;durP2;ratioP2
25988;SDS011;13778;48.236;9.894;2023-02-12T00:02:33;70.28;;;41.03;;
25988;SDS011;13778;48.236;9.894;2023-02-12T00:05:24;73.57;;;43.15;;
25988;SDS011;13778;48.236;9.894;2023-02-12T00:08:14;69.95;;;42.22;;
25988;SDS011;13778;48.236;9.894;2023-02-12T00:11:09;74.75;;;41.03;;
25988;SDS011;13778;48.236;9.894;2023-02-12T00:14:00;70.13;;;42.35;;
25988;SDS011;13778;48.236;9.894;2023-02-12T00:16:50;66.50;;;39.60;;
25988;SDS011;13778;48.236;9.894;2023-02-12T00:19:42;63.53;;;39.40;;
25988;SDS011;13778;48.236;9.894;2023-02-12T00:25:23;73.90;;;41.50;;
25988;SDS011;13778;48.236;9.894;2023-02-12T00:28:13;77.25;;;45.22;;
25988;SDS011;13778;48.236;9.894;2023-02-12T00:31:04;67.93;;;42.45;;
25988;SDS011;13778;48.236;9.894;2023-02-12T00:33:55;68.10;;;41.35;;
25988;SDS011;13778;48.236;9.894;2023-02-12T00:36:48;68.45;;;42.03;;
25988;SDS011;13778;48.236;9.894;2023-02-12T00:42:29;73.38;;;41.70;;
25988;SDS011;13778;48.236;9.894;2023-02-12T00:45:20;73.63;;;42.85;;
25988;SDS011;13778;48.236;9.894;2023-02-12T00:48:10;75.32;;;41.63;;
25988;SDS011;13778;48.236;9.894;2023-02-12T00:51:01;79.40;;;42.85;;
25988;SDS011;13778;48.236;9.894;2023-02-12T00:53:53;75.78;;;42.10;;
25988;SDS011;13778;48.236;9.894;2023-02-12T00:59:33;71.40;;;42.63;;
25988;SDS011;13778;48.236;9.894;2023-02-12T01:02:25;67.22;;;39.60;;
25988;SDS011;13778;48.236;9.894;2023-02-12T01:05:16;66.82;;;41.22;;
25988;SDS011;13778;48.236;9.894;2023-02-12T01:08:07;73.80;;;43.47;;
25988;SDS011;13778;48.236;9.894;2023-02-12T01:11:00;74.13;;;42.70;;
25988;SDS011;13778;48.236;9.894;2023-02-12T01:13:50;69.53;;;41.80;;
25988;SDS011;13778;48.236;9.894;2023-02-12T01:16:41;73.63;;;42.80;;
25988;SDS011;13778;48.236;9.894;2023-02-12T01:19:31;66.47;;;40.60;;
25988;SDS011;13778;48.236;9.894;2023-02-12T01:22:22;73.38;;;41.88;;
25988;SDS011;13778;48.236;9.894;2023-02-12T01:25:13;69.07;;;40.20;;
25988;SDS011;13778;48.236;9.894;2023-02-12T01:28:05;68.35;;;40.13;;
25988;SDS011;13778;48.236;9.894;2023-02-12T01:30:55;73.07;;;42.75;;
25988;SDS011;13778;48.236;9.894;2023-02-12T01:33:46;69.13;;;40.38;;
25988;SDS011;13778;48.236;9.894;2023-02-12T01:36:37;77.07;;;43.63;;
25988;SDS011;13778;48.236;9.894;2023-02-12T01:39:27;63.55;;;39.10;;
25988;SDS011;13778;48.236;9.894;2023-02-12T01:42:18;68.88;;;39.70;;
25988;SDS011;13778;48.236;9.894;2023-02-12T01:48:24;69.38;;;40.00;;
25988;SDS011;13778;48.236;9.894;2023-02-12T01:51:17;69.35;;;41.15;;
25988;SDS011;13778;48.236;9.894;2023-02-12T01:54:09;70.20;;;40.42;;
25988;SDS011;13778;48.236;9.894;2023-02-12T01:57:01;67.90;;;40.60;;
25988;SDS011;13778;48.236;9.894;2023-02-12T01:59:52;65.57;;;39.53;;
25988;SDS011;13778;48.236;9.894;2023-02-12T02:02:44;60.53;;;38.97;;
25988;SDS011;13778;48.236;9.894;2023-02-12T02:05:40;61.28;;;38.42;;
25988;SDS011;13778;48.236;9.894;2023-02-12T02:08:32;63.08;;;37.63;;
25988;SDS011;13778;48.236;9.894;2023-02-12T02:11:23;67.30;;;40.05;;
25988;SDS011;13778;48.236;9.894;2023-02-12T02:14:31;59.83;;;35.90;;
25988;SDS011;13778;48.236;9.894;2023-02-12T02:17:24;56.90;;;36.47;;
25988;SDS011;13778;48.236;9.894;2023-02-12T02:23:36;63.17;;;37.05;;
25988;SDS011;13778;48.236;9.894;2023-02-12T02:29:45;59.28;;;37.17;;
25988;SDS011;13778;48.236;9.894;2023-02-12T02:32:43;64.32;;;37.97;;
25988;SDS011;13778;48.236;9.894;2023-02-12T02:35:38;67.10;;;39.72;;
25988;SDS011;13778;48.236;9.894;2023-02-12T02:38:31;67.75;;;40.42;;
25988;SDS011;13778;48.236;9.894;2023-02-12T02:41:25;65.72;;;40.20;;
25988;SDS011;13778;48.236;9.894;2023-02-12T02:44:18;65.00;;;40.17;;
25988;SDS011;13778;48.236;9.894;2023-02-12T02:47:10;64.15;;;39.28;;
25988;SDS011;13778;48.236;9.894;2023-02-12T02:52:55;62.08;;;38.60;;
25988;SDS011;13778;48.236;9.894;2023-02-12T02:55:46;67.32;;;37.58;;
25988;SDS011;13778;48.236;9.894;2023-02-12T02:58:40;62.63;;;38.03;;
25988;SDS011;13778;48.236;9.894;2023-02-12T03:01:32;64.82;;;37.25;;
25988;SDS011;13778;48.236;9.894;2023-02-12T03:04:24;62.60;;;37.72;;
25988;SDS011;13778;48.236;9.894;2023-02-12T03:07:18;62.97;;;38.38;;
25988;SDS011;13778;48.236;9.894;2023-02-12T03:10:13;63.95;;;38.40;;
25988;SDS011;13778;48.236;9.894;2023-02-12T03:13:05;63.92;;;37.25;;
25988;SDS011;13778;48.236;9.894;2023-02-12T03:18:49;66.38;;;39.90;;
25988;SDS011;13778;48.236;9.894;2023-02-12T03:21:42;67.15;;;38.78;;
25988;SDS011;13778;48.236;9.894;2023-02-12T03:24:34;72.10;;;41.38;;
25988;SDS011;13778;48.236;9.894;2023-02-12T03:27:28;73.35;;;41.30;;
25988;SDS011;13778;48.236;9.894;2023-02-12T03:30:20;67.65;;;40.25;;
25988;SDS011;13778;48.236;9.894;2023-02-12T03:33:14;69.05;;;38.90;;
25988;SDS011;13778;48.236;9.894;2023-02-12T03:36:06;71.30;;;39.22;;
25988;SDS011;13778;48.236;9.894;2023-02-12T03:39:01;70.30;;;40.45;;
25988;SDS011;13778;48.236;9.894;2023-02-12T03:41:57;66.28;;;38.63;;
25988;SDS011;13778;48.236;9.894;2023-02-12T03:44:52;64.63;;;35.65;;
25988;SDS011;13778;48.236;9.894;2023-02-12T03:47:43;59.13;;;35.90;;
25988;SDS011;13778;48.236;9.894;2023-02-12T03:50:36;70.97;;;36.97;;
25988;SDS011;13778;48.236;9.894;2023-02-12T03:53:28;65.95;;;37.47;;
25988;SDS011;13778;48.236;9.894;2023-02-12T03:56:21;60.38;;;35.30;;
25988;SDS011;13778;48.236;9.894;2023-02-12T03:59:13;56.22;;;35.13;;
25988;SDS011;13778;48.236;9.894;2023-02-12T04:02:05;65.78;;;36.00;;
25988;SDS011;13778;48.236;9.894;2023-02-12T04:04:56;63.42;;;36.70;;
25988;SDS011;13778;48.236;9.894;2023-02-12T04:07:46;58.45;;;37.05;;
25988;SDS011;13778;48.236;9.894;2023-02-12T04:10:39;63.50;;;38.00;;
25988;SDS011;13778;48.236;9.894;2023-02-12T04:13:32;62.67;;;36.63;;
25988;SDS011;13778;48.236;9.894;2023-02-12T04:16:29;61.78;;;36.20;;
25988;SDS011;13778;48.236;9.894;2023-02-12T04:19:24;65.00;;;36.50;;
25988;SDS011;13778;48.236;9.894;2023-02-12T04:22:22;65.10;;;36.95;;
25988;SDS011;13778;48.236;9.894;2023-02-12T04:25:20;61.78;;;35.47;;
25988;SDS011;13778;48.236;9.894;2023-02-12T04:28:12;60.15;;;36.65;;
25988;SDS011;13778;48.236;9.894;2023-02-12T04:31:06;60.42;;;35.75;;
25988;SDS011;13778;48.236;9.894;2023-02-12T04:34:01;62.60;;;36.03;;
25988;SDS011;13778;48.236;9.894;2023-02-12T04:36:56;62.63;;;36.67;;
25988;SDS011;13778;48.236;9.894;2023-02-12T04:39:49;60.55;;;35.15;;
25988;SDS011;13778;48.236;9.894;2023-02-12T04:42:41;60.15;;;35.20;;
25988;SDS011;13778;48.236;9.894;2023-02-12T04:45:33;62.42;;;36.45;;
25988;SDS011;13778;48.236;9.894;2023-02-12T04:48:23;59.70;;;35.85;;
25988;SDS011;13778;48.236;9.894;2023-02-12T04:51:14;68.80;;;39.13;;
25988;SDS011;13778;48.236;9.894;2023-02-12T04:54:06;59.33;;;38.70;;
25988;SDS011;13778;48.236;9.894;2023-02-12T04:56:56;61.22;;;36.70;;
25988;SDS011;13778;48.236;9.894;2023-02-12T04:59:47;65.50;;;37.00;;
25988;SDS011;13778;48.236;9.894;2023-02-12T05:02:37;69.93;;;37.65;;
25988;SDS011;13778;48.236;9.894;2023-02-12T05:05:28;66.55;;;37.60;;
25988;SDS011;13778;48.236;9.894;2023-02-12T05:08:18;67.75;;;39.17;;
25988;SDS011;13778;48.236;9.894;2023-02-12T05:11:10;66.60;;;37.70;;
25988;SDS011;13778;48.236;9.894;2023-02-12T05:16:51;58.97;;;32.97;;
25988;SDS011;13778;48.236;9.894;2023-02-12T05:19:41;60.03;;;36.05;;
25988;SDS011;13778;48.236;9.894;2023-02-12T05:22:31;65.43;;;36.20;;
25988;SDS011;13778;48.236;9.894;2023-02-12T05:25:22;61.28;;;33.67;;
25988;SDS011;13778;48.236;9.894;2023-02-12T05:28:14;65.93;;;36.83;;
25988;SDS011;13778;48.236;9.894;2023-02-12T05:31:05;57.95;;;34.50;;
25988;SDS011;13778;48.236;9.894;2023-02-12T05:36:46;61.65;;;33.45;;
25988;SDS011;13778;48.236;9.894;2023-02-12T05:39:37;60.95;;;34.22;;
25988;SDS011;13778;48.236;9.894;2023-02-12T05:42:28;54.83;;;33.78;;
25988;SDS011;13778;48.236;9.894;2023-02-12T05:45:20;54.83;;;33.65;;
25988;SDS011;13778;48.236;9.894;2023-02-12T05:48:15;68.07;;;36.25;;
25988;SDS011;13778;48.236;9.894;2023-02-12T05:51:07;62.85;;;35.55;;
25988;SDS011;13778;48.236;9.894;2023-02-12T05:53:58;58.75;;;34.85;;
25988;SDS011;13778;48.236;9.894;2023-02-12T05:56:49;68.95;;;38.17;;
25988;SDS011;13778;48.236;9.894;2023-02-12T05:59:40;59.58;;;34.83;;
25988;SDS011;13778;48.236;9.894;2023-02-12T06:02:33;58.45;;;35.38;;
25988;SDS011;13778;48.236;9.894;2023-02-12T06:05:23;61.63;;;35.25;;
25988;SDS011;13778;48.236;9.894;2023-02-12T06:08:13;61.38;;;35.63;;
25988;SDS011;13778;48.236;9.894;2023-02-12T06:11:05;62.30;;;36.63;;
25988;SDS011;13778;48.236;9.894;2023-02-12T06:13:55;63.47;;;37.53;;
25988;SDS011;13778;48.236;9.894;2023-02-12T06:16:46;69.00;;;36.97;;
25988;SDS011;13778;48.236;9.894;2023-02-12T06:19:38;64.27;;;38.53;;
25988;SDS011;13778;48.236;9.894;2023-02-12T06:22:29;73.45;;;44.55;;
25988;SDS011;13778;48.236;9.894;2023-02-12T06:25:19;73.18;;;40.83;;
25988;SDS011;13778;48.236;9.894;2023-02-12T06:28:10;62.38;;;37.72;;
25988;SDS011;13778;48.236;9.894;2023-02-12T06:31:00;65.38;;;38.80;;
25988;SDS011;13778;48.236;9.894;2023-02-12T06:33:51;62.97;;;36.22;;
25988;SDS011;13778;48.236;9.894;2023-02-12T06:36:43;64.60;;;39.00;;
25988;SDS011;13778;48.236;9.894;2023-02-12T06:39:34;70.65;;;39.40;;
25988;SDS011;13778;48.236;9.894;2023-02-12T06:42:24;65.10;;;38.53;;
25988;SDS011;13778;48.236;9.894;2023-02-12T06:45:15;62.25;;;37.30;;
25988;SDS011;13778;48.236;9.894;2023-02-12T06:48:05;65.45;;;37.90;;
25988;SDS011;13778;48.236;9.894;2023-02-12T06:51:01;68.00;;;38.42;;
25988;SDS011;13778;48.236;9.894;2023-02-12T06:53:54;69.00;;;37.92;;
25988;SDS011;13778;48.236;9.894;2023-02-12T06:56:45;71.03;;;40.13;;
25988;SDS011;13778;48.236;9.894;2023-02-12T06:59:35;71.75;;;38.70;;
25988;SDS011;13778;48.236;9.894;2023-02-12T07:02:26;74.15;;;39.75;;
25988;SDS011;13778;48.236;9.894;2023-02-12T07:05:16;77.97;;;42.40;;
25988;SDS011;13778;48.236;9.894;2023-02-12T07:08:07;77.22;;;39.95;;
25988;SDS011;13778;48.236;9.894;2023-02-12T07:10:59;78.75;;;41.33;;
25988;SDS011;13778;48.236;9.894;2023-02-12T07:13:49;101.10;;;45.28;;
25988;SDS011;13778;48.236;9.894;2023-02-12T07:16:40;106.85;;;46.63;;
25988;SDS011;13778;48.236;9.894;2023-02-12T07:19:30;90.70;;;42.75;;
25988;SDS011;13778;48.236;9.894;2023-02-12T07:22:21;112.15;;;46.35;;
25988;SDS011;13778;48.236;9.894;2023-02-12T07:25:11;98.50;;;43.42;;
25988;SDS011;13778;48.236;9.894;2023-02-12T07:28:03;96.63;;;43.10;;
25988;SDS011;13778;48.236;9.894;2023-02-12T07:30:53;92.03;;;40.63;;
25988;SDS011;13778;48.236;9.894;2023-02-12T07:33:44;99.68;;;43.92;;
25988;SDS011;13778;48.236;9.894;2023-02-12T07:36:35;96.25;;;44.00;;
25988;SDS011;13778;48.236;9.894;2023-02-12T07:39:25;92.03;;;40.10;;
25988;SDS011;13778;48.236;9.894;2023-02-12T07:42:16;97.50;;;41.42;;
25988;SDS011;13778;48.236;9.894;2023-02-12T07:45:08;106.40;;;43.67;;
25988;SDS011;13778;48.236;9.894;2023-02-12T07:47:59;105.38;;;41.90;;
25988;SDS011;13778;48.236;9.894;2023-02-12T07:50:49;90.72;;;41.53;;
25988;SDS011;13778;48.236;9.894;2023-02-12T07:53:40;92.28;;;41.33;;
25988;SDS011;13778;48.236;9.894;2023-02-12T07:56:31;88.03;;;38.85;;
25988;SDS011;13778;48.236;9.894;2023-02-12T07:59:23;83.80;;;37.78;;
25988;SDS011;13778;48.236;9.894;2023-02-12T08:02:15;85.53;;;37.42;;
25988;SDS011;13778;48.236;9.894;2023-02-12T08:05:05;81.50;;;37.53;;
25988;SDS011;13778;48.236;9.894;2023-02-12T08:07:56;85.60;;;38.37;;
25988;SDS011;13778;48.236;9.894;2023-02-12T08:10:46;81.43;;;35.70;;
25988;SDS011;13778;48.236;9.894;2023-02-12T08:13:37;106.68;;;44.78;;
25988;SDS011;13778;48.236;9.894;2023-02-12T08:16:27;76.40;;;33.58;;
25988;SDS011;13778;48.236;9.894;2023-02-12T08:22:11;62.58;;;28.52;;
25988;SDS011;13778;48.236;9.894;2023-02-12T08:25:02;66.82;;;35.30;;
25988;SDS011;13778;48.236;9.894;2023-02-12T08:27:52;64.47;;;32.83;;
25988;SDS011;13778;48.236;9.894;2023-02-12T08:30:43;70.32;;;33.80;;
25988;SDS011;13778;48.236;9.894;2023-02-12T08:33:33;62.95;;;30.33;;
25988;SDS011;13778;48.236;9.894;2023-02-12T08:36:24;69.68;;;32.88;;
25988;SDS011;13778;48.236;9.894;2023-02-12T08:39:17;58.92;;;28.20;;
25988;SDS011;13778;48.236;9.894;2023-02-12T08:42:08;64.53;;;31.42;;
25988;SDS011;13778;48.236;9.894;2023-02-12T08:44:58;62.10;;;30.65;;
25988;SDS011;13778;48.236;9.894;2023-02-12T08:47:48;66.78;;;36.80;;
25988;SDS011;13778;48.236;9.894;2023-02-12T08:50:39;47.50;;;26.70;;
25988;SDS011;13778;48.236;9.894;2023-02-12T08:53:29;44.92;;;20.60;;
25988;SDS011;13778;48.236;9.894;2023-02-12T08:56:22;48.53;;;27.05;;
25988;SDS011;13778;48.236;9.894;2023-02-12T08:59:13;48.55;;;24.60;;
25988;SDS011;13778;48.236;9.894;2023-02-12T09:02:03;31.50;;;15.13;;
25988;SDS011;13778;48.236;9.894;2023-02-12T09:04:56;21.73;;;12.38;;
25988;SDS011;13778;48.236;9.894;2023-02-12T09:07:47;23.92;;;11.90;;
25988;SDS011;13778;48.236;9.894;2023-02-12T09:10:37;22.70;;;13.35;;
25988;SDS011;13778;48.236;9.894;2023-02-12T09:13:29;17.60;;;10.38;;
25988;SDS011;13778;48.236;9.894;2023-02-12T09:16:20;13.00;;;8.25;;
25988;SDS011;13778;48.236;9.894;2023-02-12T09:19:11;17.02;;;9.23;;
25988;SDS011;13778;48.236;9.894;2023-02-12T09:22:02;15.98;;;9.60;;
25988;SDS011;13778;48.236;9.894;2023-02-12T09:24:52;10.90;;;7.32;;
25988;SDS011;13778;48.236;9.894;2023-02-12T09:27:43;18.50;;;12.45;;
25988;SDS011;13778;48.236;9.894;2023-02-12T09:30:35;14.65;;;8.13;;
25988;SDS011;13778;48.236;9.894;2023-02-12T09:33:25;14.02;;;8.63;;
25988;SDS011;13778;48.236;9.894;2023-02-12T09:36:16;11.35;;;6.97;;
25988;SDS011;13778;48.236;9.894;2023-02-12T09:39:06;14.02;;;7.22;;
25988;SDS011;13778;48.236;9.894;2023-02-12T09:42:08;7.90;;;6.75;;
25988;SDS011;13778;48.236;9.894;2023-02-12T09:45:03;8.80;;;5.75;;
25988;SDS011;13778;48.236;9.894;2023-02-12T09:47:58;11.00;;;6.10;;
25988;SDS011;13778;48.236;9.894;2023-02-12T09:50:51;9.27;;;6.05;;
25988;SDS011;13778;48.236;9.894;2023-02-12T09:53:43;8.90;;;6.22;;
25988;SDS011;13778;48.236;9.894;2023-02-12T09:56:35;10.20;;;6.72;;
25988;SDS011;13778;48.236;9.894;2023-02-12T09:59:27;10.43;;;6.72;;
25988;SDS011;13778;48.236;9.894;2023-02-12T10:02:19;10.50;;;7.07;;
25988;SDS011;13778;48.236;9.894;2023-02-12T10:05:15;9.88;;;6.60;;
25988;SDS011;13778;48.236;9.894;2023-02-12T10:08:14;9.50;;;7.00;;
25988;SDS011;13778;48.236;9.894;2023-02-12T10:11:13;12.40;;;7.50;;
25988;SDS011;13778;48.236;9.894;2023-02-12T10:14:13;12.63;;;7.90;;
25988;SDS011;13778;48.236;9.894;2023-02-12T10:17:12;18.40;;;11.38;;
25988;SDS011;13778;48.236;9.894;2023-02-12T10:20:08;10.27;;;6.85;;
25988;SDS011;13778;48.236;9.894;2023-02-12T10:23:07;10.55;;;6.95;;
25988;SDS011;13778;48.236;9.894;2023-02-12T10:26:02;10.68;;;6.90;;
25988;SDS011;13778;48.236;9.894;2023-02-12T10:28:54;7.22;;;5.35;;
25988;SDS011;13778;48.236;9.894;2023-02-12T10:31:48;8.95;;;6.50;;
25988;SDS011;13778;48.236;9.894;2023-02-12T10:34:40;7.05;;;4.78;;
25988;SDS011;13778;48.236;9.894;2023-02-12T10:37:31;9.75;;;8.52;;
25988;SDS011;13778;48.236;9.894;2023-02-12T10:40:27;10.13;;;6.90;;
25988;SDS011;13778;48.236;9.894;2023-02-12T10:43:18;13.93;;;9.65;;
25988;SDS011;13778;48.236;9.894;2023-02-12T10:46:10;12.27;;;8.40;;
25988;SDS011;13778;48.236;9.894;2023-02-12T10:49:02;13.00;;;8.50;;
25988;SDS011;13778;48.236;9.894;2023-02-12T10:51:57;18.55;;;12.50;;
25988;SDS011;13778;48.236;9.894;2023-02-12T10:54:50;25.20;;;15.57;;
25988;SDS011;13778;48.236;9.894;2023-02-12T10:57:42;16.58;;;10.60;;
25988;SDS011;13778;48.236;9.894;2023-02-12T11:00:33;14.80;;;9.05;;
25988;SDS011;13778;48.236;9.894;2023-02-12T11:03:27;14.93;;;8.82;;
25988;SDS011;13778;48.236;9.894;2023-02-12T11:06:18;15.02;;;9.38;;
25988;SDS011;13778;48.236;9.894;2023-02-12T11:09:17;16.80;;;10.35;;
25988;SDS011;13778;48.236;9.894;2023-02-12T11:12:17;19.13;;;12.50;;
25988;SDS011;13778;48.236;9.894;2023-02-12T11:15:13;14.10;;;9.80;;
25988;SDS011;13778;48.236;9.894;2023-02-12T11:18:04;12.10;;;8.48;;
25988;SDS011;13778;48.236;9.894;2023-02-12T11:20:56;16.35;;;10.60;;
25988;SDS011;13778;48.236;9.894;2023-02-12T11:26:37;12.27;;;8.50;;
25988;SDS011;13778;48.236;9.894;2023-02-12T11:29:27;12.82;;;9.82;;
25988;SDS011;13778;48.236;9.894;2023-02-12T11:32:23;29.05;;;21.67;;
25988;SDS011;13778;48.236;9.894;2023-02-12T11:35:14;24.17;;;18.17;;
25988;SDS011;13778;48.236;9.894;2023-02-12T11:38:15;9.90;;;8.15;;
25988;SDS011;13778;48.236;9.894;2023-02-12T11:41:18;12.15;;;8.73;;
25988;SDS011;13778;48.236;9.894;2023-02-12T11:44:10;55.13;;;34.00;;
25988;SDS011;13778;48.236;9.894;2023-02-12T11:47:02;18.15;;;13.05;;
25988;SDS011;13778;48.236;9.894;2023-02-12T11:49:58;11.63;;;6.82;;
25988;SDS011;13778;48.236;9.894;2023-02-12T11:52:52;9.55;;;7.00;;
25988;SDS011;13778;48.236;9.894;2023-02-12T11:55:43;10.82;;;6.65;;
25988;SDS011;13778;48.236;9.894;2023-02-12T11:58:41;10.48;;;5.72;;
25988;SDS011;13778;48.236;9.894;2023-02-12T12:01:33;9.77;;;6.45;;
25988;SDS011;13778;48.236;9.894;2023-02-12T12:04:25;12.68;;;8.15;;
25988;SDS011;13778;48.236;9.894;2023-02-12T12:07:18;11.68;;;7.47;;
25988;SDS011;13778;48.236;9.894;2023-02-12T12:10:11;9.82;;;6.75;;
25988;SDS011;13778;48.236;9.894;2023-02-12T12:13:03;13.27;;;7.05;;
25988;SDS011;13778;48.236;9.894;2023-02-12T12:15:57;10.05;;;6.85;;
25988;SDS011;13778;48.236;9.894;2023-02-12T12:19:09;13.73;;;7.13;;
25988;SDS011;13778;48.236;9.894;2023-02-12T12:22:22;13.23;;;7.78;;
25988;SDS011;13778;48.236;9.894;2023-02-12T12:25:16;15.98;;;9.63;;
25988;SDS011;13778;48.236;9.894;2023-02-12T12:28:10;19.30;;;10.00;;
25988;SDS011;13778;48.236;9.894;2023-02-12T12:31:07;16.02;;;9.60;;
25988;SDS011;13778;48.236;9.894;2023-02-12T12:34:02;16.30;;;9.15;;
25988;SDS011;13778;48.236;9.894;2023-02-12T12:37:14;15.00;;;9.15;;
25988;SDS011;13778;48.236;9.894;2023-02-12T12:40:21;16.40;;;10.35;;
25988;SDS011;13778;48.236;9.894;2023-02-12T12:43:16;15.77;;;9.60;;
25988;SDS011;13778;48.236;9.894;2023-02-12T12:46:15;16.52;;;10.23;;
25988;SDS011;13778;48.236;9.894;2023-02-12T12:52:24;26.88;;;13.13;;
25988;SDS011;13778;48.236;9.894;2023-02-12T12:58:28;21.40;;;12.30;;
25988;SDS011;13778;48.236;9.894;2023-02-12T13:04:31;21.23;;;12.05;;
25988;SDS011;13778;48.236;9.894;2023-02-12T13:07:30;19.15;;;11.18;;
25988;SDS011;13778;48.236;9.894;2023-02-12T13:10:29;21.85;;;12.70;;
25988;SDS011;13778;48.236;9.894;2023-02-12T13:13:24;20.63;;;13.25;;
25988;SDS011;13778;48.236;9.894;2023-02-12T13:16:18;19.55;;;11.20;;
25988;SDS011;13778;48.236;9.894;2023-02-12T13:19:11;21.23;;;13.95;;
25988;SDS011;13778;48.236;9.894;2023-02-12T13:22:05;22.73;;;13.13;;
25988;SDS011;13778;48.236;9.894;2023-02-12T13:25:00;20.92;;;12.48;;
25988;SDS011;13778;48.236;9.894;2023-02-12T13:27:52;17.88;;;11.70;;
25988;SDS011;13778;48.236;9.894;2023-02-12T13:30:44;19.90;;;11.13;;
25988;SDS011;13778;48.236;9.894;2023-02-12T13:33:40;18.33;;;11.32;;
25988;SDS011;13778;48.236;9.894;2023-02-12T13:36:32;21.83;;;11.88;;
25988;SDS011;13778;48.236;9.894;2023-02-12T13:39:26;22.45;;;12.70;;
25988;SDS011;13778;48.236;9.894;2023-02-12T13:42:22;17.60;;;11.30;;
25988;SDS011;13778;48.236;9.894;2023-02-12T13:45:17;15.60;;;9.70;;
25988;SDS011;13778;48.236;9.894;2023-02-12T13:48:21;13.05;;;9.00;;
25988;SDS011;13778;48.236;9.894;2023-02-12T13:51:17;22.48;;;12.52;;
25988;SDS011;13778;48.236;9.894;2023-02-12T13:54:16;21.17;;;12.27;;
25988;SDS011;13778;48.236;9.894;2023-02-12T13:57:10;24.30;;;13.02;;
25988;SDS011;13778;48.236;9.894;2023-02-12T14:00:02;23.15;;;13.27;;
25988;SDS011;13778;48.236;9.894;2023-02-12T14:02:56;25.30;;;14.05;;
25988;SDS011;13778;48.236;9.894;2023-02-12T14:05:47;23.20;;;12.70;;
25988;SDS011;13778;48.236;9.894;2023-02-12T14:08:39;25.90;;;13.48;;
25988;SDS011;13778;48.236;9.894;2023-02-12T14:11:30;24.25;;;13.45;;
25988;SDS011;13778;48.236;9.894;2023-02-12T14:14:24;24.58;;;14.02;;
25988;SDS011;13778;48.236;9.894;2023-02-12T14:20:27;22.90;;;13.13;;
25988;SDS011;13778;48.236;9.894;2023-02-12T14:23:23;20.63;;;12.05;;
25988;SDS011;13778;48.236;9.894;2023-02-12T14:26:15;20.00;;;12.95;;
25988;SDS011;13778;48.236;9.894;2023-02-12T14:29:14;20.60;;;12.32;;
25988;SDS011;13778;48.236;9.894;2023-02-12T14:41:33;23.30;;;12.88;;
25988;SDS011;13778;48.236;9.894;2023-02-12T14:44:36;21.50;;;12.98;;
25988;SDS011;13778;48.236;9.894;2023-02-12T14:50:37;21.73;;;13.60;;
25988;SDS011;13778;48.236;9.894;2023-02-12T14:53:28;22.13;;;13.35;;
25988;SDS011;13778;48.236;9.894;2023-02-12T14:56:20;23.17;;;12.95;;
25988;SDS011;13778;48.236;9.894;2023-02-12T14:59:13;20.43;;;12.23;;
25988;SDS011;13778;48.236;9.894;2023-02-12T15:02:05;20.48;;;13.20;;
25988;SDS011;13778;48.236;9.894;2023-02-12T15:07:48;22.17;;;12.73;;
25988;SDS011;13778;48.236;9.894;2023-02-12T15:10:44;18.25;;;11.52;;
25988;SDS011;13778;48.236;9.894;2023-02-12T15:13:41;18.65;;;10.93;;
25988;SDS011;13778;48.236;9.894;2023-02-12T15:16:36;20.30;;;11.55;;
25988;SDS011;13778;48.236;9.894;2023-02-12T15:19:34;19.25;;;11.40;;
25988;SDS011;13778;48.236;9.894;2023-02-12T15:22:28;20.13;;;11.25;;
25988;SDS011;13778;48.236;9.894;2023-02-12T15:25:21;16.83;;;9.85;;
25988;SDS011;13778;48.236;9.894;2023-02-12T15:28:14;17.05;;;10.48;;
25988;SDS011;13778;48.236;9.894;2023-02-12T15:31:08;16.75;;;10.68;;
25988;SDS011;13778;48.236;9.894;2023-02-12T15:34:01;15.88;;;9.57;;
25988;SDS011;13778;48.236;9.894;2023-02-12T15:36:52;15.65;;;10.15;;
25988;SDS011;13778;48.236;9.894;2023-02-12T15:39:43;20.88;;;10.10;;
25988;SDS011;13778;48.236;9.894;2023-02-12T15:42:36;19.23;;;10.98;;
25988;SDS011;13778;48.236;9.894;2023-02-12T15:45:28;17.17;;;10.40;;
25988;SDS011;13778;48.236;9.894;2023-02-12T15:48:20;15.65;;;9.90;;
25988;SDS011;13778;48.236;9.894;2023-02-12T15:51:15;16.70;;;9.82;;
25988;SDS011;13778;48.236;9.894;2023-02-12T15:54:06;16.13;;;9.95;;
25988;SDS011;13778;48.236;9.894;2023-02-12T15:56:56;15.80;;;9.52;;
25988;SDS011;13778;48.236;9.894;2023-02-12T15:59:48;17.23;;;9.88;;
25988;SDS011;13778;48.236;9.894;2023-02-12T16:02:39;16.45;;;9.50;;
25988;SDS011;13778;48.236;9.894;2023-02-12T16:05:29;18.92;;;10.27;;
25988;SDS011;13778;48.236;9.894;2023-02-12T16:08:22;16.95;;;10.00;;
25988;SDS011;13778;48.236;9.894;2023-02-12T16:11:15;19.23;;;11.35;;
25988;SDS011;13778;48.236;9.894;2023-02-12T16:14:14;21.45;;;12.43;;
25988;SDS011;13778;48.236;9.894;2023-02-12T16:17:17;21.83;;;13.63;;
25988;SDS011;13778;48.236;9.894;2023-02-12T16:20:20;37.47;;;23.38;;
25988;SDS011;13778;48.236;9.894;2023-02-12T16:23:10;26.60;;;14.90;;
25988;SDS011;13778;48.236;9.894;2023-02-12T16:26:02;33.53;;;21.08;;
25988;SDS011;13778;48.236;9.894;2023-02-12T16:31:54;25.23;;;15.05;;
25988;SDS011;13778;48.236;9.894;2023-02-12T16:34:45;23.42;;;13.05;;
25988;SDS011;13778;48.236;9.894;2023-02-12T16:37:47;26.37;;;13.97;;
25988;SDS011;13778;48.236;9.894;2023-02-12T16:40:38;27.92;;;14.57;;
25988;SDS011;13778;48.236;9.894;2023-02-12T16:43:30;26.98;;;15.13;;
25988;SDS011;13778;48.236;9.894;2023-02-12T16:49:12;31.60;;;15.70;;
25988;SDS011;13778;48.236;9.894;2023-02-12T16:52:17;30.95;;;16.58;;
25988;SDS011;13778;48.236;9.894;2023-02-12T16:55:10;27.90;;;15.57;;
25988;SDS011;13778;48.236;9.894;2023-02-12T16:58:02;28.42;;;15.75;;
25988;SDS011;13778;48.236;9.894;2023-02-12T17:00:54;29.58;;;15.93;;
25988;SDS011;13778;48.236;9.894;2023-02-12T17:03:46;28.88;;;15.75;;
25988;SDS011;13778;48.236;9.894;2023-02-12T17:06:38;29.50;;;16.65;;
25988;SDS011;13778;48.236;9.894;2023-02-12T17:09:28;30.00;;;15.73;;
25988;SDS011;13778;48.236;9.894;2023-02-12T17:12:19;33.03;;;16.88;;
25988;SDS011;13778;48.236;9.894;2023-02-12T17:15:09;28.92;;;16.02;;
25988;SDS011;13778;48.236;9.894;2023-02-12T17:18:06;30.70;;;16.00;;
25988;SDS011;13778;48.236;9.894;2023-02-12T17:20:58;27.58;;;15.38;;
25988;SDS011;13778;48.236;9.894;2023-02-12T17:23:48;29.63;;;16.42;;
25988;SDS011;13778;48.236;9.894;2023-02-12T17:26:39;27.92;;;14.75;;
25988;SDS011;13778;48.236;9.894;2023-02-12T17:29:29;29.88;;;15.18;;
25988;SDS011;13778;48.236;9.894;2023-02-12T17:32:20;31.48;;;16.63;;
25988;SDS011;13778;48.236;9.894;2023-02-12T17:35:14;35.33;;;18.67;;
25988;SDS011;13778;48.236;9.894;2023-02-12T17:40:55;26.08;;;14.18;;
25988;SDS011;13778;48.236;9.894;2023-02-12T17:43:45;25.58;;;15.35;;
25988;SDS011;13778;48.236;9.894;2023-02-12T17:46:35;32.47;;;15.70;;
25988;SDS011;13778;48.236;9.894;2023-02-12T17:49:26;33.13;;;16.95;;
25988;SDS011;13778;48.236;9.894;2023-02-12T17:52:17;29.75;;;15.98;;
25988;SDS011;13778;48.236;9.894;2023-02-12T17:55:08;34.45;;;17.40;;
25988;SDS011;13778;48.236;9.894;2023-02-12T17:57:59;31.77;;;16.50;;
25988;SDS011;13778;48.236;9.894;2023-02-12T18:00:51;34.88;;;19.35;;
25988;SDS011;13778;48.236;9.894;2023-02-12T18:03:42;35.92;;;18.52;;
25988;SDS011;13778;48.236;9.894;2023-02-12T18:06:32;36.35;;;19.08;;